Cusco, Peru
Current Conditions -  °F | °C
As of 3:30 PM on Sunday 21 Dec 2014 (Local Time) from SPZO Reporting Station
Broken Clouds Broken Clouds  
Wind Chill: 21°   Ceiling: 10000
Heat Index: 21°   Visibility: 6mi
Dew Point:   Wind: 14mph
Humidity: 25%   Direction: 290°WNW
Pressure: 30.21"   Gusts: NA
Location:  13.52°S, 71.99°W
Report Text: SPZO 212030Z 29012KT 250V340 9999 SCT050 BKN100 21/M00 Q1023
Loading
Personal Weather Stations






























Interactive Weather Map New forecast layout! Learn more

10-Day Weather Forecast

Advertisements
Track Severe Weather on mobile